sensor_id;sensor_type;location;lat;lon;timestamp;temperature;humidity
55642;DHT22;41509;53.108;6.100;2022-09-01T00:00:45;15.70;99.90
55642;DHT22;41509;53.108;6.100;2022-09-01T00:03:15;15.70;99.90
55642;DHT22;41509;53.108;6.100;2022-09-01T00:05:41;15.70;99.90
55642;DHT22;41509;53.108;6.100;2022-09-01T00:08:06;15.70;99.90
55642;DHT22;41509;53.108;6.100;2022-09-01T00:10:32;15.70;99.90
55642;DHT22;41509;53.108;6.100;2022-09-01T00:12:58;15.60;99.90
55642;DHT22;41509;53.108;6.100;2022-09-01T00:15:24;15.60;99.90
55642;DHT22;41509;53.108;6.100;2022-09-01T00:17:50;15.60;99.90
55642;DHT22;41509;53.108;6.100;2022-09-01T00:20:16;15.60;99.90
55642;DHT22;41509;53.108;6.100;2022-09-01T00:22:44;15.60;99.90
55642;DHT22;41509;53.108;6.100;2022-09-01T00:25:10;15.60;99.90
55642;DHT22;41509;53.108;6.100;2022-09-01T00:27:36;15.60;99.90
55642;DHT22;41509;53.108;6.100;2022-09-01T00:30:02;15.60;99.90
55642;DHT22;41509;53.108;6.100;2022-09-01T00:32:28;15.60;99.90
55642;DHT22;41509;53.108;6.100;2022-09-01T00:34:53;15.60;99.90
55642;DHT22;41509;53.108;6.100;2022-09-01T00:37:19;15.50;99.90
55642;DHT22;41509;53.108;6.100;2022-09-01T00:39:45;15.60;99.90
55642;DHT22;41509;53.108;6.100;2022-09-01T00:42:10;15.50;99.90
55642;DHT22;41509;53.108;6.100;2022-09-01T00:44:36;15.50;99.90
55642;DHT22;41509;53.108;6.100;2022-09-01T00:47:03;15.40;99.90
55642;DHT22;41509;53.108;6.100;2022-09-01T00:49:35;15.50;99.90
55642;DHT22;41509;53.108;6.100;2022-09-01T00:52:10;15.40;99.90
55642;DHT22;41509;53.108;6.100;2022-09-01T00:54:39;15.40;99.90
55642;DHT22;41509;53.108;6.100;2022-09-01T00:57:08;15.40;99.90
55642;DHT22;41509;53.108;6.100;2022-09-01T00:59:48;15.40;99.90
55642;DHT22;41509;53.108;6.100;2022-09-01T01:02:14;15.30;99.90
55642;DHT22;41509;53.108;6.100;2022-09-01T01:04:40;15.30;99.90
55642;DHT22;41509;53.108;6.100;2022-09-01T01:07:09;15.30;99.90
55642;DHT22;41509;53.108;6.100;2022-09-01T01:09:41;15.30;99.90
55642;DHT22;41509;53.108;6.100;2022-09-01T01:12:07;15.30;99.90
55642;DHT22;41509;53.108;6.100;2022-09-01T01:14:44;15.20;99.90
55642;DHT22;41509;53.108;6.100;2022-09-01T01:17:10;15.20;99.90
55642;DHT22;41509;53.108;6.100;2022-09-01T01:19:40;15.20;99.90
55642;DHT22;41509;53.108;6.100;2022-09-01T01:23:03;15.20;99.90
55642;DHT22;41509;53.108;6.100;2022-09-01T01:25:41;15.20;99.90
55642;DHT22;41509;53.108;6.100;2022-09-01T01:28:17;15.10;99.90
55642;DHT22;41509;53.108;6.100;2022-09-01T01:30:51;15.10;99.90
55642;DHT22;41509;53.108;6.100;2022-09-01T01:33:23;15.10;99.90
55642;DHT22;41509;53.108;6.100;2022-09-01T01:35:51;15.10;99.90
55642;DHT22;41509;53.108;6.100;2022-09-01T01:38:18;15.10;99.90
55642;DHT22;41509;53.108;6.100;2022-09-01T01:40:45;15.10;99.90
55642;DHT22;41509;53.108;6.100;2022-09-01T01:43:11;15.10;99.90
55642;DHT22;41509;53.108;6.100;2022-09-01T01:45:45;15.10;99.90
55642;DHT22;41509;53.108;6.100;2022-09-01T01:48:14;15.10;99.90
55642;DHT22;41509;53.108;6.100;2022-09-01T01:50:40;15.00;99.90
55642;DHT22;41509;53.108;6.100;2022-09-01T01:53:08;15.00;99.90
55642;DHT22;41509;53.108;6.100;2022-09-01T01:55:34;15.00;99.90
55642;DHT22;41509;53.108;6.100;2022-09-01T01:58:00;15.00;99.90
55642;DHT22;41509;53.108;6.100;2022-09-01T02:00:29;14.90;99.90
55642;DHT22;41509;53.108;6.100;2022-09-01T02:02:59;14.90;99.90
55642;DHT22;41509;53.108;6.100;2022-09-01T02:05:26;14.90;99.90
55642;DHT22;41509;53.108;6.100;2022-09-01T02:07:59;14.80;99.90
55642;DHT22;41509;53.108;6.100;2022-09-01T02:10:29;14.80;99.90
55642;DHT22;41509;53.108;6.100;2022-09-01T02:12:56;14.80;99.90
55642;DHT22;41509;53.108;6.100;2022-09-01T02:15:28;14.90;99.90
55642;DHT22;41509;53.108;6.100;2022-09-01T02:17:54;14.80;99.90
55642;DHT22;41509;53.108;6.100;2022-09-01T02:20:25;14.80;99.90
55642;DHT22;41509;53.108;6.100;2022-09-01T02:22:54;14.80;99.90
55642;DHT22;41509;53.108;6.100;2022-09-01T02:25:21;14.80;99.90
55642;DHT22;41509;53.108;6.100;2022-09-01T02:27:50;14.70;99.90
55642;DHT22;41509;53.108;6.100;2022-09-01T02:30:18;14.70;99.90
55642;DHT22;41509;53.108;6.100;2022-09-01T02:32:43;14.70;99.90
55642;DHT22;41509;53.108;6.100;2022-09-01T02:35:09;14.60;99.90
55642;DHT22;41509;53.108;6.100;2022-09-01T02:37:36;14.60;99.90
55642;DHT22;41509;53.108;6.100;2022-09-01T02:40:07;14.60;99.90
55642;DHT22;41509;53.108;6.100;2022-09-01T02:42:36;14.60;99.90
55642;DHT22;41509;53.108;6.100;2022-09-01T02:45:06;14.60;99.90
55642;DHT22;41509;53.108;6.100;2022-09-01T02:47:40;14.50;99.90
55642;DHT22;41509;53.108;6.100;2022-09-01T02:50:10;14.50;99.90
55642;DHT22;41509;53.108;6.100;2022-09-01T02:52:42;14.50;99.90
55642;DHT22;41509;53.108;6.100;2022-09-01T02:55:08;14.50;99.90
55642;DHT22;41509;53.108;6.100;2022-09-01T02:57:34;14.50;99.90
55642;DHT22;41509;53.108;6.100;2022-09-01T03:00:00;14.50;99.90
55642;DHT22;41509;53.108;6.100;2022-09-01T03:02:26;14.50;99.90
55642;DHT22;41509;53.108;6.100;2022-09-01T03:04:54;14.40;99.90
55642;DHT22;41509;53.108;6.100;2022-09-01T03:07:20;14.50;99.90
55642;DHT22;41509;53.108;6.100;2022-09-01T03:09:51;14.40;99.90
55642;DHT22;41509;53.108;6.100;2022-09-01T03:12:17;14.40;99.90
55642;DHT22;41509;53.108;6.100;2022-09-01T03:14:44;14.40;99.90
55642;DHT22;41509;53.108;6.100;2022-09-01T03:17:10;14.40;99.90
55642;DHT22;41509;53.108;6.100;2022-09-01T03:19:36;14.40;99.90
55642;DHT22;41509;53.108;6.100;2022-09-01T03:22:09;14.30;99.90
55642;DHT22;41509;53.108;6.100;2022-09-01T03:24:35;14.40;99.90
55642;DHT22;41509;53.108;6.100;2022-09-01T03:27:01;14.30;99.90
55642;DHT22;41509;53.108;6.100;2022-09-01T03:29:26;14.30;99.90
55642;DHT22;41509;53.108;6.100;2022-09-01T03:31:55;14.40;99.90
55642;DHT22;41509;53.108;6.100;2022-09-01T03:34:23;14.40;99.90
55642;DHT22;41509;53.108;6.100;2022-09-01T03:36:49;14.30;99.90
55642;DHT22;41509;53.108;6.100;2022-09-01T03:39:16;14.40;99.90
55642;DHT22;41509;53.108;6.100;2022-09-01T03:41:42;14.40;99.90
55642;DHT22;41509;53.108;6.100;2022-09-01T03:44:09;14.30;99.90
55642;DHT22;41509;53.108;6.100;2022-09-01T03:46:38;14.30;99.90
55642;DHT22;41509;53.108;6.100;2022-09-01T03:49:05;14.20;99.90
55642;DHT22;41509;53.108;6.100;2022-09-01T03:51:37;14.20;99.90
55642;DHT22;41509;53.108;6.100;2022-09-01T03:54:03;14.20;99.90
55642;DHT22;41509;53.108;6.100;2022-09-01T03:56:29;14.20;99.90
55642;DHT22;41509;53.108;6.100;2022-09-01T03:58:57;14.20;99.90
55642;DHT22;41509;53.108;6.100;2022-09-01T04:01:24;14.10;99.90
55642;DHT22;41509;53.108;6.100;2022-09-01T04:03:50;14.10;99.90
55642;DHT22;41509;53.108;6.100;2022-09-01T04:06:16;14.10;99.90
55642;DHT22;41509;53.108;6.100;2022-09-01T04:08:49;14.10;99.90
55642;DHT22;41509;53.108;6.100;2022-09-01T04:11:19;14.10;99.90
55642;DHT22;41509;53.108;6.100;2022-09-01T04:13:48;14.10;99.90
55642;DHT22;41509;53.108;6.100;2022-09-01T04:16:18;14.10;99.90
55642;DHT22;41509;53.108;6.100;2022-09-01T04:19:02;14.00;99.90
55642;DHT22;41509;53.108;6.100;2022-09-01T04:21:41;14.00;99.90
55642;DHT22;41509;53.108;6.100;2022-09-01T04:24:08;14.00;99.90
55642;DHT22;41509;53.108;6.100;2022-09-01T04:26:36;14.00;99.90
55642;DHT22;41509;53.108;6.100;2022-09-01T04:29:02;14.00;99.90
55642;DHT22;41509;53.108;6.100;2022-09-01T04:31:28;14.00;99.90
55642;DHT22;41509;53.108;6.100;2022-09-01T04:33:56;14.00;99.90
55642;DHT22;41509;53.108;6.100;2022-09-01T04:36:28;14.00;99.90
55642;DHT22;41509;53.108;6.100;2022-09-01T04:38:59;14.00;99.90
55642;DHT22;41509;53.108;6.100;2022-09-01T04:41:29;14.00;99.90
55642;DHT22;41509;53.108;6.100;2022-09-01T04:43:57;14.00;99.90
55642;DHT22;41509;53.108;6.100;2022-09-01T04:46:25;14.00;99.90
55642;DHT22;41509;53.108;6.100;2022-09-01T04:48:54;14.00;99.90
55642;DHT22;41509;53.108;6.100;2022-09-01T04:51:20;14.00;99.90
55642;DHT22;41509;53.108;6.100;2022-09-01T04:53:46;14.00;99.90
55642;DHT22;41509;53.108;6.100;2022-09-01T04:56:17;14.00;99.90
55642;DHT22;41509;53.108;6.100;2022-09-01T04:58:48;13.90;99.90
55642;DHT22;41509;53.108;6.100;2022-09-01T05:01:25;13.90;99.90
55642;DHT22;41509;53.108;6.100;2022-09-01T05:03:51;13.90;99.90
55642;DHT22;41509;53.108;6.100;2022-09-01T05:06:28;13.90;99.90
55642;DHT22;41509;53.108;6.100;2022-09-01T05:08:54;14.00;99.90
55642;DHT22;41509;53.108;6.100;2022-09-01T05:11:22;13.90;99.90
55642;DHT22;41509;53.108;6.100;2022-09-01T05:13:48;13.90;99.90
55642;DHT22;41509;53.108;6.100;2022-09-01T05:16:17;13.90;99.90
55642;DHT22;41509;53.108;6.100;2022-09-01T05:18:45;13.90;99.90
55642;DHT22;41509;53.108;6.100;2022-09-01T05:21:14;13.90;99.90
55642;DHT22;41509;53.108;6.100;2022-09-01T05:23:42;13.90;99.90
55642;DHT22;41509;53.108;6.100;2022-09-01T05:26:14;13.80;99.90
55642;DHT22;41509;53.108;6.100;2022-09-01T05:28:45;13.90;99.90
55642;DHT22;41509;53.108;6.100;2022-09-01T05:31:11;13.90;99.90
55642;DHT22;41509;53.108;6.100;2022-09-01T05:33:37;13.90;99.90
55642;DHT22;41509;53.108;6.100;2022-09-01T05:36:11;13.90;99.90
55642;DHT22;41509;53.108;6.100;2022-09-01T05:38:37;13.80;99.90
55642;DHT22;41509;53.108;6.100;2022-09-01T05:41:07;13.90;99.90
55642;DHT22;41509;53.108;6.100;2022-09-01T05:43:34;13.90;99.90
55642;DHT22;41509;53.108;6.100;2022-09-01T05:46:05;13.90;99.90
55642;DHT22;41509;53.108;6.100;2022-09-01T05:48:33;13.90;99.90
55642;DHT22;41509;53.108;6.100;2022-09-01T05:51:06;13.90;99.90
55642;DHT22;41509;53.108;6.100;2022-09-01T05:53:32;13.90;99.90
55642;DHT22;41509;53.108;6.100;2022-09-01T05:55:59;14.00;99.90
55642;DHT22;41509;53.108;6.100;2022-09-01T05:58:31;14.00;99.90
55642;DHT22;41509;53.108;6.100;2022-09-01T06:00:59;14.10;99.90
55642;DHT22;41509;53.108;6.100;2022-09-01T06:03:26;14.10;99.90
55642;DHT22;41509;53.108;6.100;2022-09-01T06:05:53;14.20;99.90
55642;DHT22;41509;53.108;6.100;2022-09-01T06:08:21;14.20;99.90
55642;DHT22;41509;53.108;6.100;2022-09-01T06:10:48;14.20;99.90
55642;DHT22;41509;53.108;6.100;2022-09-01T06:13:15;14.20;99.90
55642;DHT22;41509;53.108;6.100;2022-09-01T06:15:42;14.30;99.90
55642;DHT22;41509;53.108;6.100;2022-09-01T06:18:11;14.30;99.90
55642;DHT22;41509;53.108;6.100;2022-09-01T06:20:38;14.40;99.90
55642;DHT22;41509;53.108;6.100;2022-09-01T06:23:08;14.40;99.90
55642;DHT22;41509;53.108;6.100;2022-09-01T06:25:39;14.50;99.90
55642;DHT22;41509;53.108;6.100;2022-09-01T06:28:14;14.50;99.90
55642;DHT22;41509;53.108;6.100;2022-09-01T06:30:41;14.50;99.90
55642;DHT22;41509;53.108;6.100;2022-09-01T06:33:07;14.60;99.90
55642;DHT22;41509;53.108;6.100;2022-09-01T06:35:34;14.70;99.90
55642;DHT22;41509;53.108;6.100;2022-09-01T06:38:01;14.70;99.90
55642;DHT22;41509;53.108;6.100;2022-09-01T06:40:27;14.80;99.90
55642;DHT22;41509;53.108;6.100;2022-09-01T06:42:53;14.80;99.90
55642;DHT22;41509;53.108;6.100;2022-09-01T06:45:21;14.90;99.90
55642;DHT22;41509;53.108;6.100;2022-09-01T06:47:48;14.90;99.90
55642;DHT22;41509;53.108;6.100;2022-09-01T06:50:18;14.90;99.90
55642;DHT22;41509;53.108;6.100;2022-09-01T06:52:45;15.00;99.90
55642;DHT22;41509;53.108;6.100;2022-09-01T06:55:11;15.10;99.90
55642;DHT22;41509;53.108;6.100;2022-09-01T06:57:38;15.10;99.90
55642;DHT22;41509;53.108;6.100;2022-09-01T07:00:07;15.20;99.90
55642;DHT22;41509;53.108;6.100;2022-09-01T07:02:43;15.30;99.90
55642;DHT22;41509;53.108;6.100;2022-09-01T07:05:10;15.30;99.90
55642;DHT22;41509;53.108;6.100;2022-09-01T07:07:36;15.50;99.90
55642;DHT22;41509;53.108;6.100;2022-09-01T07:10:03;15.40;99.90
55642;DHT22;41509;53.108;6.100;2022-09-01T07:12:29;15.50;99.90
55642;DHT22;41509;53.108;6.100;2022-09-01T07:14:56;15.50;99.90
55642;DHT22;41509;53.108;6.100;2022-09-01T07:17:24;15.60;99.90
55642;DHT22;41509;53.108;6.100;2022-09-01T07:19:50;15.60;99.90
55642;DHT22;41509;53.108;6.100;2022-09-01T07:22:16;15.70;99.90
55642;DHT22;41509;53.108;6.100;2022-09-01T07:24:42;15.80;99.90
55642;DHT22;41509;53.108;6.100;2022-09-01T07:27:10;15.70;99.90
55642;DHT22;41509;53.108;6.100;2022-09-01T07:29:36;15.80;99.90
55642;DHT22;41509;53.108;6.100;2022-09-01T07:32:03;15.80;99.90
55642;DHT22;41509;53.108;6.100;2022-09-01T07:34:29;15.90;99.90
55642;DHT22;41509;53.108;6.100;2022-09-01T07:36:55;16.00;99.90
55642;DHT22;41509;53.108;6.100;2022-09-01T07:39:21;16.10;99.90
55642;DHT22;41509;53.108;6.100;2022-09-01T07:41:47;16.20;99.90
55642;DHT22;41509;53.108;6.100;2022-09-01T07:44:13;16.30;99.90
55642;DHT22;41509;53.108;6.100;2022-09-01T07:46:40;16.30;99.90
55642;DHT22;41509;53.108;6.100;2022-09-01T07:49:06;16.40;99.90
55642;DHT22;41509;53.108;6.100;2022-09-01T07:51:32;16.40;99.90
55642;DHT22;41509;53.108;6.100;2022-09-01T07:53:59;16.40;99.90
55642;DHT22;41509;53.108;6.100;2022-09-01T07:56:27;16.50;99.90
55642;DHT22;41509;53.108;6.100;2022-09-01T07:58:55;16.60;99.90
55642;DHT22;41509;53.108;6.100;2022-09-01T08:01:24;16.70;99.90
55642;DHT22;41509;53.108;6.100;2022-09-01T08:03:56;16.80;99.90
55642;DHT22;41509;53.108;6.100;2022-09-01T08:06:24;17.00;99.90
55642;DHT22;41509;53.108;6.100;2022-09-01T08:08:53;17.10;99.90
55642;DHT22;41509;53.108;6.100;2022-09-01T08:11:25;17.20;99.90
55642;DHT22;41509;53.108;6.100;2022-09-01T08:13:54;17.30;99.90
55642;DHT22;41509;53.108;6.100;2022-09-01T08:16:20;17.40;99.90
55642;DHT22;41509;53.108;6.100;2022-09-01T08:18:47;17.50;99.90
55642;DHT22;41509;53.108;6.100;2022-09-01T08:21:13;17.60;99.90
55642;DHT22;41509;53.108;6.100;2022-09-01T08:23:39;17.70;99.90
55642;DHT22;41509;53.108;6.100;2022-09-01T08:26:07;17.70;99.90
55642;DHT22;41509;53.108;6.100;2022-09-01T08:28:33;17.80;99.90
55642;DHT22;41509;53.108;6.100;2022-09-01T08:30:59;17.80;99.90
55642;DHT22;41509;53.108;6.100;2022-09-01T08:33:25;17.90;99.90
55642;DHT22;41509;53.108;6.100;2022-09-01T08:35:51;18.00;99.90
55642;DHT22;41509;53.108;6.100;2022-09-01T08:38:17;18.10;99.90
55642;DHT22;41509;53.108;6.100;2022-09-01T08:40:53;18.20;99.90
55642;DHT22;41509;53.108;6.100;2022-09-01T08:43:31;18.30;99.90
55642;DHT22;41509;53.108;6.100;2022-09-01T08:46:12;18.40;99.90
55642;DHT22;41509;53.108;6.100;2022-09-01T08:48:40;18.50;99.90
55642;DHT22;41509;53.108;6.100;2022-09-01T08:51:38;18.60;99.90
55642;DHT22;41509;53.108;6.100;2022-09-01T08:57:08;18.80;99.90
55642;DHT22;41509;53.108;6.100;2022-09-01T08:59:35;18.90;99.90
55642;DHT22;41509;53.108;6.100;2022-09-01T09:04:54;19.10;99.90
55642;DHT22;41509;53.108;6.100;2022-09-01T09:20:56;19.60;99.90
55642;DHT22;41509;53.108;6.100;2022-09-01T09:23:31;19.70;99.90
55642;DHT22;41509;53.108;6.100;2022-09-01T09:25:57;19.80;99.90
55642;DHT22;41509;53.108;6.100;2022-09-01T09:28:23;19.90;99.90
55642;DHT22;41509;53.108;6.100;2022-09-01T09:30:49;20.00;99.90
55642;DHT22;41509;53.108;6.100;2022-09-01T09:33:36;20.00;99.90
55642;DHT22;41509;53.108;6.100;2022-09-01T09:36:17;20.20;99.90
55642;DHT22;41509;53.108;6.100;2022-09-01T09:38:44;20.30;99.90
55642;DHT22;41509;53.108;6.100;2022-09-01T09:41:18;20.30;99.90
55642;DHT22;41509;53.108;6.100;2022-09-01T09:43:46;20.60;99.90
55642;DHT22;41509;53.108;6.100;2022-09-01T09:49:22;20.70;99.90
55642;DHT22;41509;53.108;6.100;2022-09-01T09:54:57;21.00;99.90
55642;DHT22;41509;53.108;6.100;2022-09-01T09:57:23;21.10;99.90
55642;DHT22;41509;53.108;6.100;2022-09-01T10:00:05;21.20;99.90
55642;DHT22;41509;53.108;6.100;2022-09-01T10:02:38;21.30;99.90
55642;DHT22;41509;53.108;6.100;2022-09-01T10:05:36;21.40;99.90
55642;DHT22;41509;53.108;6.100;2022-09-01T10:08:08;21.50;99.90
55642;DHT22;41509;53.108;6.100;2022-09-01T10:10:48;21.60;99.90
55642;DHT22;41509;53.108;6.100;2022-09-01T10:13:20;21.70;99.90
55642;DHT22;41509;53.108;6.100;2022-09-01T10:15:50;21.80;99.90
55642;DHT22;41509;53.108;6.100;2022-09-01T10:18:22;21.90;99.90
55642;DHT22;41509;53.108;6.100;2022-09-01T10:21:16;22.00;99.90
55642;DHT22;41509;53.108;6.100;2022-09-01T10:23:43;22.10;99.70
55642;DHT22;41509;53.108;6.100;2022-09-01T10:26:18;22.20;99.90
55642;DHT22;41509;53.108;6.100;2022-09-01T10:28:57;22.30;98.20
55642;DHT22;41509;53.108;6.100;2022-09-01T10:31:26;22.40;99.70
55642;DHT22;41509;53.108;6.100;2022-09-01T10:33:52;22.50;99.00
55642;DHT22;41509;53.108;6.100;2022-09-01T10:36:18;22.50;97.70
55642;DHT22;41509;53.108;6.100;2022-09-01T10:38:45;22.60;96.30
55642;DHT22;41509;53.108;6.100;2022-09-01T10:44:30;22.70;95.60
55642;DHT22;41509;53.108;6.100;2022-09-01T10:47:02;22.80;96.00
55642;DHT22;41509;53.108;6.100;2022-09-01T10:51:54;23.10;93.30
55642;DHT22;41509;53.108;6.100;2022-09-01T10:57:31;23.40;90.40
55642;DHT22;41509;53.108;6.100;2022-09-01T11:10:54;23.60;81.50
55642;DHT22;41509;53.108;6.100;2022-09-01T11:13:41;23.50;82.70
55642;DHT22;41509;53.108;6.100;2022-09-01T11:16:28;23.30;81.10
55642;DHT22;41509;53.108;6.100;2022-09-01T11:18:55;23.30;80.90
55642;DHT22;41509;53.108;6.100;2022-09-01T11:21:40;23.40;78.90
55642;DHT22;41509;53.108;6.100;2022-09-01T11:27:11;23.40;81.90
55642;DHT22;41509;53.108;6.100;2022-09-01T11:29:58;23.50;83.60
55642;DHT22;41509;53.108;6.100;2022-09-01T11:32:31;23.70;81.60
55642;DHT22;41509;53.108;6.100;2022-09-01T11:35:00;23.90;82.50
55642;DHT22;41509;53.108;6.100;2022-09-01T11:37:27;23.90;82.20
55642;DHT22;41509;53.108;6.100;2022-09-01T11:39:54;23.90;81.00
55642;DHT22;41509;53.108;6.100;2022-09-01T11:45:10;23.60;80.80
55642;DHT22;41509;53.108;6.100;2022-09-01T11:47:41;23.50;79.30
55642;DHT22;41509;53.108;6.100;2022-09-01T11:52:40;23.20;79.60
55642;DHT22;41509;53.108;6.100;2022-09-01T11:55:06;23.30;80.60
55642;DHT22;41509;53.108;6.100;2022-09-01T11:57:36;23.50;81.40
55642;DHT22;41509;53.108;6.100;2022-09-01T12:00:08;23.80;81.50
55642;DHT22;41509;53.108;6.100;2022-09-01T12:02:44;23.90;78.90
55642;DHT22;41509;53.108;6.100;2022-09-01T12:07:55;23.80;76.60
55642;DHT22;41509;53.108;6.100;2022-09-01T12:10:32;23.80;78.80
55642;DHT22;41509;53.108;6.100;2022-09-01T12:13:19;23.90;77.40
55642;DHT22;41509;53.108;6.100;2022-09-01T12:15:52;24.10;77.40
55642;DHT22;41509;53.108;6.100;2022-09-01T12:20:50;24.50;76.10
55642;DHT22;41509;53.108;6.100;2022-09-01T12:23:38;24.50;73.40
55642;DHT22;41509;53.108;6.100;2022-09-01T12:26:13;24.40;71.70
55642;DHT22;41509;53.108;6.100;2022-09-01T12:28:39;24.30;73.20
55642;DHT22;41509;53.108;6.100;2022-09-01T12:31:12;24.20;74.10
55642;DHT22;41509;53.108;6.100;2022-09-01T12:33:39;24.40;73.50
55642;DHT22;41509;53.108;6.100;2022-09-01T12:36:28;24.60;72.50
55642;DHT22;41509;53.108;6.100;2022-09-01T12:41:44;24.70;68.80
55642;DHT22;41509;53.108;6.100;2022-09-01T12:44:49;24.70;70.50
55642;DHT22;41509;53.108;6.100;2022-09-01T12:52:57;25.20;66.40
55642;DHT22;41509;53.108;6.100;2022-09-01T12:57:56;25.50;66.40
55642;DHT22;41509;53.108;6.100;2022-09-01T13:00:28;25.70;65.50
55642;DHT22;41509;53.108;6.100;2022-09-01T13:07:57;26.10;63.60
55642;DHT22;41509;53.108;6.100;2022-09-01T13:10:25;26.20;63.10
55642;DHT22;41509;53.108;6.100;2022-09-01T13:12:53;26.40;63.60
55642;DHT22;41509;53.108;6.100;2022-09-01T13:15:20;26.50;62.00
55642;DHT22;41509;53.108;6.100;2022-09-01T13:17:46;26.60;61.40
55642;DHT22;41509;53.108;6.100;2022-09-01T13:20:12;26.60;60.20
55642;DHT22;41509;53.108;6.100;2022-09-01T13:22:38;26.60;59.80
55642;DHT22;41509;53.108;6.100;2022-09-01T13:25:10;26.60;59.80
55642;DHT22;41509;53.108;6.100;2022-09-01T13:27:38;26.60;59.60
55642;DHT22;41509;53.108;6.100;2022-09-01T13:30:10;26.40;59.10
55642;DHT22;41509;53.108;6.100;2022-09-01T13:32:36;26.40;58.90
55642;DHT22;41509;53.108;6.100;2022-09-01T13:35:02;26.20;58.30
55642;DHT22;41509;53.108;6.100;2022-09-01T13:37:28;26.00;58.70
55642;DHT22;41509;53.108;6.100;2022-09-01T13:40:03;26.00;58.90
55642;DHT22;41509;53.108;6.100;2022-09-01T13:42:31;25.90;58.90
55642;DHT22;41509;53.108;6.100;2022-09-01T13:45:00;26.00;58.70
55642;DHT22;41509;53.108;6.100;2022-09-01T13:47:28;26.00;58.70
55642;DHT22;41509;53.108;6.100;2022-09-01T13:49:54;26.10;58.90
55642;DHT22;41509;53.108;6.100;2022-09-01T13:52:19;26.10;58.10
55642;DHT22;41509;53.108;6.100;2022-09-01T13:54:48;26.10;57.90
55642;DHT22;41509;53.108;6.100;2022-09-01T13:57:13;26.10;57.90
55642;DHT22;41509;53.108;6.100;2022-09-01T13:59:40;26.10;58.00
55642;DHT22;41509;53.108;6.100;2022-09-01T14:02:06;26.10;58.50
55642;DHT22;41509;53.108;6.100;2022-09-01T14:04:32;26.10;58.50
55642;DHT22;41509;53.108;6.100;2022-09-01T14:06:57;26.30;58.20
55642;DHT22;41509;53.108;6.100;2022-09-01T14:09:24;26.40;58.40
55642;DHT22;41509;53.108;6.100;2022-09-01T14:11:52;26.50;57.60
55642;DHT22;41509;53.108;6.100;2022-09-01T14:14:18;26.60;56.80
55642;DHT22;41509;53.108;6.100;2022-09-01T14:16:44;26.40;56.60
55642;DHT22;41509;53.108;6.100;2022-09-01T14:19:11;26.20;56.60
55642;DHT22;41509;53.108;6.100;2022-09-01T14:21:37;25.90;57.10
55642;DHT22;41509;53.108;6.100;2022-09-01T14:24:03;25.80;57.30
55642;DHT22;41509;53.108;6.100;2022-09-01T14:26:29;25.80;57.70
55642;DHT22;41509;53.108;6.100;2022-09-01T14:28:55;25.90;57.60
55642;DHT22;41509;53.108;6.100;2022-09-01T14:31:20;26.00;57.40
55642;DHT22;41509;53.108;6.100;2022-09-01T14:33:46;26.10;56.90
55642;DHT22;41509;53.108;6.100;2022-09-01T14:36:19;26.00;57.00
55642;DHT22;41509;53.108;6.100;2022-09-01T14:38:48;26.00;56.20
55642;DHT22;41509;53.108;6.100;2022-09-01T14:41:16;26.10;56.10
55642;DHT22;41509;53.108;6.100;2022-09-01T14:43:46;26.20;56.90
55642;DHT22;41509;53.108;6.100;2022-09-01T14:46:11;26.20;56.30
55642;DHT22;41509;53.108;6.100;2022-09-01T14:48:38;26.20;56.40
55642;DHT22;41509;53.108;6.100;2022-09-01T14:51:05;26.40;57.10
55642;DHT22;41509;53.108;6.100;2022-09-01T14:53:31;26.50;57.00
55642;DHT22;41509;53.108;6.100;2022-09-01T14:55:58;26.50;56.50
55642;DHT22;41509;53.108;6.100;2022-09-01T14:58:25;26.50;56.50
55642;DHT22;41509;53.108;6.100;2022-09-01T15:00:52;26.50;56.60
55642;DHT22;41509;53.108;6.100;2022-09-01T15:03:23;26.20;56.40
55642;DHT22;41509;53.108;6.100;2022-09-01T15:05:51;26.00;56.50
55642;DHT22;41509;53.108;6.100;2022-09-01T15:08:16;25.70;56.80
55642;DHT22;41509;53.108;6.100;2022-09-01T15:10:42;25.60;57.10
55642;DHT22;41509;53.108;6.100;2022-09-01T15:13:08;25.40;57.30
55642;DHT22;41509;53.108;6.100;2022-09-01T15:15:33;25.50;57.60
55642;DHT22;41509;53.108;6.100;2022-09-01T15:18:00;25.60;57.80
55642;DHT22;41509;53.108;6.100;2022-09-01T15:20:26;25.70;58.00
55642;DHT22;41509;53.108;6.100;2022-09-01T15:23:15;25.80;57.80
55642;DHT22;41509;53.108;6.100;2022-09-01T15:25:42;25.70;57.80
55642;DHT22;41509;53.108;6.100;2022-09-01T15:28:08;25.60;57.40
55642;DHT22;41509;53.108;6.100;2022-09-01T15:30:34;25.30;57.50
55642;DHT22;41509;53.108;6.100;2022-09-01T15:33:00;25.20;58.10
55642;DHT22;41509;53.108;6.100;2022-09-01T15:35:28;25.00;57.60
55642;DHT22;41509;53.108;6.100;2022-09-01T15:37:53;24.80;57.50
55642;DHT22;41509;53.108;6.100;2022-09-01T15:40:22;24.70;58.00
55642;DHT22;41509;53.108;6.100;2022-09-01T15:42:48;24.90;58.10
55642;DHT22;41509;53.108;6.100;2022-09-01T15:45:16;25.00;58.00
55642;DHT22;41509;53.108;6.100;2022-09-01T15:47:43;25.10;57.90
55642;DHT22;41509;53.108;6.100;2022-09-01T15:50:11;25.20;57.60
55642;DHT22;41509;53.108;6.100;2022-09-01T15:52:58;25.10;57.70
55642;DHT22;41509;53.108;6.100;2022-09-01T15:55:25;25.20;57.60
55642;DHT22;41509;53.108;6.100;2022-09-01T15:57:51;25.10;57.90
55642;DHT22;41509;53.108;6.100;2022-09-01T16:00:20;25.10;58.40
55642;DHT22;41509;53.108;6.100;2022-09-01T16:02:46;24.90;58.50
55642;DHT22;41509;53.108;6.100;2022-09-01T16:05:12;24.90;58.50
55642;DHT22;41509;53.108;6.100;2022-09-01T16:07:39;24.90;58.80
55642;DHT22;41509;53.108;6.100;2022-09-01T16:10:07;25.00;58.70
55642;DHT22;41509;53.108;6.100;2022-09-01T16:12:40;25.00;58.30
55642;DHT22;41509;53.108;6.100;2022-09-01T16:15:13;25.00;58.10
55642;DHT22;41509;53.108;6.100;2022-09-01T16:20:26;25.00;58.00
55642;DHT22;41509;53.108;6.100;2022-09-01T16:22:57;25.00;58.00
55642;DHT22;41509;53.108;6.100;2022-09-01T16:25:32;24.90;57.90
55642;DHT22;41509;53.108;6.100;2022-09-01T16:30:44;24.80;57.70
55642;DHT22;41509;53.108;6.100;2022-09-01T16:33:11;24.60;57.60
55642;DHT22;41509;53.108;6.100;2022-09-01T16:39:20;24.30;57.90
55642;DHT22;41509;53.108;6.100;2022-09-01T16:42:22;24.10;58.10
55642;DHT22;41509;53.108;6.100;2022-09-01T17:01:13;23.10;59.60
55642;DHT22;41509;53.108;6.100;2022-09-01T17:04:57;23.00;59.60
55642;DHT22;41509;53.108;6.100;2022-09-01T17:07:01;22.90;59.70
55642;DHT22;41509;53.108;6.100;2022-09-01T17:10:03;22.90;60.00
55642;DHT22;41509;53.108;6.100;2022-09-01T17:12:51;22.80;59.70
55642;DHT22;41509;53.108;6.100;2022-09-01T17:15:28;22.80;59.70
55642;DHT22;41509;53.108;6.100;2022-09-01T17:18:05;22.70;59.70
55642;DHT22;41509;53.108;6.100;2022-09-01T17:20:34;22.70;59.70
55642;DHT22;41509;53.108;6.100;2022-09-01T17:23:05;22.60;59.40
55642;DHT22;41509;53.108;6.100;2022-09-01T17:25:44;22.60;59.70